Time;durP1;ratioP1;P1;durP2;ratioP2;P2;SDS_P1;SDS_P2;PMS_P1;PMS_P2;Temp;Humidity;BMP_temperature;BMP_pressure;BME280_temperature;BME280_humidity;BME280_pressure;Samples;Min_cycle;Max_cycle;Signal;HPM_P1;HPM_P2
2021/12/07 00:02:13;;;;;;;38.20;22.20;;;0.70;99.90;;;;;;5082584;28;20184;-94
2021/12/07 00:04:40;;;;;;;37.53;21.33;;;0.70;99.90;;;;;;5081503;28;20177;-94
2021/12/07 00:07:15;;;;;;;37.90;22.67;;;0.70;99.90;;;;;;5081737;28;20211;-95
2021/12/07 00:09:44;;;;;;;37.93;22.03;;;0.70;99.90;;;;;;5081029;28;20179;-94
2021/12/07 00:12:10;;;;;;;39.03;21.50;;;0.70;99.90;;;;;;5081504;28;20200;-94
2021/12/07 00:14:41;;;;;;;37.73;21.80;;;0.70;99.90;;;;;;5081216;28;20177;-96
2021/12/07 00:17:08;;;;;;;39.03;22.00;;;0.70;99.90;;;;;;5095832;28;20273;-95
2021/12/07 00:19:34;;;;;;;36.37;21.27;;;0.60;99.90;;;;;;5097816;28;20180;-94
2021/12/07 00:22:02;;;;;;;39.90;21.97;;;0.70;99.90;;;;;;5090227;28;20172;-96
2021/12/07 00:24:28;;;;;;;35.80;20.43;;;0.70;99.90;;;;;;5097558;28;20602;-95
2021/12/07 00:26:58;;;;;;;38.07;21.17;;;0.60;99.90;;;;;;5089211;28;20177;-95
2021/12/07 00:29:25;;;;;;;37.50;20.60;;;0.70;99.90;;;;;;5098236;28;20219;-95
2021/12/07 00:32:07;;;;;;;36.03;21.90;;;0.60;99.90;;;;;;5096716;28;20207;-95
2021/12/07 00:37:07;;;;;;;36.33;21.30;;;0.60;99.90;;;;;;5099059;28;20196;-95
2021/12/07 00:39:32;;;;;;;39.00;21.60;;;0.60;99.90;;;;;;5094908;28;20175;-96
2021/12/07 00:42:00;;;;;;;43.13;22.63;;;0.60;99.90;;;;;;5091160;28;20188;-95
2021/12/07 00:44:27;;;;;;;38.23;22.43;;;0.70;99.90;;;;;;5098863;28;20256;-96
2021/12/07 00:46:56;;;;;;;41.20;23.23;;;0.60;99.90;;;;;;5098115;28;20508;-95
2021/12/07 00:49:22;;;;;;;38.33;21.00;;;0.60;99.90;;;;;;5099117;28;20176;-95
2021/12/07 00:51:48;;;;;;;40.57;22.70;;;0.60;99.90;;;;;;5097734;28;20515;-95
2021/12/07 00:54:15;;;;;;;37.77;21.93;;;0.70;99.90;;;;;;5092111;28;20195;-96
2021/12/07 00:56:40;;;;;;;39.27;23.27;;;0.70;99.90;;;;;;5097989;28;20188;-96
2021/12/07 00:59:07;;;;;;;41.43;23.73;;;0.70;99.90;;;;;;5090595;28;20180;-96
2021/12/07 01:01:34;;;;;;;41.97;22.90;;;0.60;99.90;;;;;;5097618;28;20607;-95
2021/12/07 01:04:00;;;;;;;41.60;22.23;;;0.60;99.90;;;;;;5090308;28;20207;-95
2021/12/07 01:06:31;;;;;;;38.90;22.50;;;0.60;99.90;;;;;;5097615;28;20180;-96
2021/12/07 01:24:38;;;;;;;40.83;23.07;;;0.60;99.90;;;;;;5097227;28;20248;-96
2021/12/07 01:26:07;;;;;;;45.47;25.20;;;0.60;99.90;;;;;;5098895;28;20206;-96
2021/12/07 01:28:40;;;;;;;41.67;25.00;;;0.70;99.90;;;;;;5080508;28;20610;-96
2021/12/07 01:31:18;;;;;;;43.87;24.87;;;0.70;99.90;;;;;;5080044;28;20173;-96
2021/12/07 01:41:31;;;;;;;44.57;25.27;;;0.60;99.90;;;;;;5098143;28;20506;-96
2021/12/07 02:00:28;;;;;;;43.53;24.57;;;0.70;99.90;;;;;;5097224;28;20180;-94
2021/12/07 02:02:53;;;;;;;42.60;24.07;;;0.70;99.90;;;;;;5078913;28;20305;-96
2021/12/07 02:05:19;;;;;;;45.27;25.67;;;0.70;99.90;;;;;;5078868;28;20638;-95
2021/12/07 02:07:50;;;;;;;46.63;24.90;;;0.70;99.90;;;;;;5076527;28;20612;-96
2021/12/07 02:10:21;;;;;;;43.50;26.00;;;0.70;99.90;;;;;;5079275;28;20173;-95
2021/12/07 02:12:49;;;;;;;47.57;25.47;;;0.70;99.90;;;;;;5078947;28;20582;-95
2021/12/07 02:15:22;;;;;;;44.73;25.17;;;0.70;99.90;;;;;;5078497;28;20610;-95
2021/12/07 02:17:49;;;;;;;45.67;25.47;;;0.70;99.90;;;;;;5097552;28;20217;-95
2021/12/07 02:20:15;;;;;;;45.37;25.23;;;0.70;99.90;;;;;;5099664;28;20558;-95
2021/12/07 02:22:41;;;;;;;41.47;25.03;;;0.70;99.90;;;;;;5098376;28;20515;-94
2021/12/07 02:25:09;;;;;;;41.03;24.47;;;0.70;99.90;;;;;;5098918;28;20175;-96
2021/12/07 02:27:45;;;;;;;44.70;25.37;;;0.70;99.90;;;;;;5099110;28;20183;-95
2021/12/07 02:30:14;;;;;;;42.53;25.17;;;0.70;99.90;;;;;;5098940;28;20168;-95
2021/12/07 02:32:40;;;;;;;45.30;25.47;;;0.70;99.90;;;;;;5098497;28;20650;-95
2021/12/07 02:35:07;;;;;;;45.50;25.53;;;0.70;99.90;;;;;;5098487;28;20264;-95
2021/12/07 02:37:37;;;;;;;48.63;25.77;;;0.70;99.90;;;;;;5098522;28;20184;-95
2021/12/07 02:40:06;;;;;;;41.07;24.83;;;0.70;99.90;;;;;;5099043;28;20175;-94
2021/12/07 02:42:31;;;;;;;45.63;24.23;;;0.70;99.90;;;;;;5098184;28;20184;-95
2021/12/07 02:44:57;;;;;;;43.50;25.20;;;0.70;99.90;;;;;;5098634;28;20653;-94
2021/12/07 02:47:23;;;;;;;44.73;25.00;;;0.70;99.90;;;;;;5098492;28;20557;-96
2021/12/07 02:50:07;;;;;;;40.00;24.30;;;0.70;99.90;;;;;;5098701;28;20175;-95
2021/12/07 02:52:33;;;;;;;45.97;25.67;;;0.70;99.90;;;;;;5098427;28;20522;-96
2021/12/07 02:54:59;;;;;;;40.77;24.60;;;0.70;99.90;;;;;;5097509;28;20190;-95
2021/12/07 02:57:25;;;;;;;40.03;23.80;;;0.70;99.90;;;;;;5098109;28;20175;-95
2021/12/07 03:00:01;;;;;;;45.53;24.87;;;0.70;99.90;;;;;;5098416;28;20253;-95
2021/12/07 03:02:28;;;;;;;44.10;24.33;;;0.70;99.90;;;;;;5097744;28;20175;-95
2021/12/07 03:05:10;;;;;;;44.80;25.10;;;0.70;99.90;;;;;;5098531;28;20175;-94
2021/12/07 03:07:52;;;;;;;41.00;23.87;;;0.70;99.90;;;;;;5098045;28;20174;-95
2021/12/07 03:26:51;;;;;;;42.90;24.60;;;0.70;99.90;;;;;;5116187;28;20563;-95
2021/12/07 03:29:31;;;;;;;42.87;25.50;;;0.70;99.90;;;;;;5098651;28;20182;-96
2021/12/07 03:31:57;;;;;;;42.20;24.13;;;0.70;99.90;;;;;;5098427;28;20201;-95
2021/12/07 03:34:23;;;;;;;40.53;23.83;;;0.70;99.90;;;;;;5098099;28;20282;-95
2021/12/07 03:36:49;;;;;;;41.83;23.93;;;0.70;99.90;;;;;;5097777;28;20214;-96
2021/12/07 03:39:15;;;;;;;41.17;24.00;;;0.70;99.90;;;;;;5098121;28;20221;-96
2021/12/07 03:41:42;;;;;;;44.90;25.07;;;0.70;99.90;;;;;;5098060;28;20203;-95
2021/12/07 03:44:07;;;;;;;43.90;24.33;;;0.70;99.90;;;;;;5098087;28;20179;-96
2021/12/07 03:46:33;;;;;;;45.37;24.97;;;0.80;99.90;;;;;;5097560;28;20179;-95
2021/12/07 03:48:59;;;;;;;42.97;24.83;;;0.80;99.90;;;;;;5098035;28;20176;-95
2021/12/07 03:51:25;;;;;;;44.00;25.90;;;0.80;99.90;;;;;;5098061;28;20175;-95
2021/12/07 03:53:51;;;;;;;42.87;24.87;;;0.80;99.90;;;;;;5098030;28;20212;-96
2021/12/07 03:56:16;;;;;;;46.53;26.97;;;0.80;99.90;;;;;;5097710;28;20189;-95
2021/12/07 03:58:43;;;;;;;39.67;24.47;;;0.80;99.90;;;;;;5097653;28;20184;-96
2021/12/07 04:01:11;;;;;;;43.10;25.70;;;0.80;99.90;;;;;;5098086;28;20172;-94
2021/12/07 04:03:38;;;;;;;44.33;25.87;;;0.90;99.90;;;;;;5098450;28;20195;-96
2021/12/07 04:06:06;;;;;;;41.10;25.00;;;0.90;99.90;;;;;;5098911;28;20186;-96
2021/12/07 04:08:35;;;;;;;40.27;25.03;;;0.90;99.90;;;;;;5101862;28;20183;-96
2021/12/07 04:11:01;;;;;;;43.10;26.00;;;0.80;99.90;;;;;;5101469;28;20175;-96
2021/12/07 04:13:27;;;;;;;40.77;24.40;;;0.90;99.90;;;;;;5101994;28;20659;-96
2021/12/07 04:15:53;;;;;;;45.57;25.50;;;0.90;99.90;;;;;;5102262;28;20232;-96
2021/12/07 04:18:20;;;;;;;43.30;25.40;;;0.90;99.90;;;;;;5101853;28;20179;-96
2021/12/07 04:20:48;;;;;;;41.03;24.93;;;0.90;99.90;;;;;;5102064;28;20247;-96
2021/12/07 04:23:14;;;;;;;41.97;24.27;;;0.90;99.90;;;;;;5102004;28;20248;-96
2021/12/07 04:25:40;;;;;;;47.97;25.93;;;0.90;99.90;;;;;;5101263;28;20575;-95
2021/12/07 04:28:06;;;;;;;43.27;24.97;;;0.90;99.90;;;;;;5119127;28;20346;-95
2021/12/07 04:30:46;;;;;;;41.67;24.07;;;0.90;99.90;;;;;;5100799;28;20176;-95
2021/12/07 04:33:13;;;;;;;43.43;24.30;;;0.90;99.90;;;;;;5100789;28;20684;-94
2021/12/07 04:35:42;;;;;;;40.60;23.73;;;0.90;99.90;;;;;;5100583;28;20175;-95
2021/12/07 04:38:08;;;;;;;46.33;24.40;;;1.00;99.90;;;;;;5101299;28;20175;-96
2021/12/07 04:40:37;;;;;;;40.90;24.53;;;1.00;99.90;;;;;;5100700;28;20249;-96
2021/12/07 04:43:04;;;;;;;43.53;24.60;;;1.00;99.90;;;;;;5101025;28;20168;-96
2021/12/07 04:59:28;;;;;;;40.23;23.43;;;1.00;99.90;;;;;;5119543;28;20174;-96
2021/12/07 05:01:53;;;;;;;44.83;24.27;;;1.00;99.90;;;;;;5100488;28;20164;-96
2021/12/07 05:04:24;;;;;;;40.97;22.73;;;1.00;99.90;;;;;;5100730;28;20270;-95
2021/12/07 05:06:55;;;;;;;40.33;23.20;;;1.10;99.90;;;;;;5100280;28;20498;-96
2021/12/07 05:09:41;;;;;;;40.20;23.07;;;1.10;99.90;;;;;;5100653;28;20197;-95
2021/12/07 05:14:38;;;;;;;37.00;21.67;;;1.10;99.90;;;;;;5119350;28;20227;-96
2021/12/07 05:17:41;;;;;;;39.20;23.07;;;1.10;99.90;;;;;;5100118;28;20238;-96
2021/12/07 05:39:18;;;;;;;37.23;21.67;;;1.10;99.90;;;;;;5118511;28;20207;-96
2021/12/07 05:41:44;;;;;;;34.43;21.23;;;1.10;99.90;;;;;;5099272;28;20179;-96
2021/12/07 05:44:09;;;;;;;38.20;22.20;;;1.20;99.90;;;;;;5099933;28;20184;-96
2021/12/07 05:46:35;;;;;;;37.90;23.00;;;1.10;99.90;;;;;;5100161;28;20613;-95
2021/12/07 05:49:01;;;;;;;39.10;22.30;;;1.10;99.90;;;;;;5099660;28;20183;-96
2021/12/07 05:51:28;;;;;;;36.23;21.90;;;1.10;99.90;;;;;;5099722;28;20206;-96
2021/12/07 05:53:53;;;;;;;39.00;21.87;;;1.10;99.90;;;;;;5100256;28;20644;-94
2021/12/07 05:56:19;;;;;;;35.50;21.73;;;1.20;99.90;;;;;;5100013;28;20225;-96
2021/12/07 05:58:45;;;;;;;36.00;21.10;;;1.20;99.90;;;;;;5099416;28;20180;-96
2021/12/07 06:01:18;;;;;;;38.60;22.67;;;1.20;99.90;;;;;;5099901;28;20172;-96
2021/12/07 06:03:43;;;;;;;38.67;21.83;;;1.10;99.90;;;;;;5099054;28;20178;-95
2021/12/07 06:06:09;;;;;;;37.43;21.80;;;1.10;99.90;;;;;;5098865;28;20212;-95
2021/12/07 06:08:35;;;;;;;34.17;21.20;;;1.10;99.90;;;;;;5098940;28;20194;-96
2021/12/07 06:11:12;;;;;;;35.83;21.97;;;1.10;99.90;;;;;;5099301;28;20185;-95
2021/12/07 06:13:38;;;;;;;34.67;20.50;;;1.10;99.90;;;;;;5098909;28;20300;-95
2021/12/07 06:16:07;;;;;;;36.90;22.13;;;1.10;99.90;;;;;;5098784;28;20219;-95
2021/12/07 06:18:34;;;;;;;36.20;22.13;;;1.10;99.90;;;;;;5098916;28;20179;-96
2021/12/07 06:21:20;;;;;;;37.07;21.07;;;1.20;99.90;;;;;;5098962;28;20168;-94
2021/12/07 06:23:46;;;;;;;34.37;20.13;;;1.10;99.90;;;;;;5092737;28;20180;-95
2021/12/07 06:26:11;;;;;;;34.23;20.50;;;1.20;99.90;;;;;;5088524;28;20179;-95
2021/12/07 06:28:51;;;;;;;33.53;19.93;;;1.20;99.90;;;;;;5094664;28;20183;-94
2021/12/07 06:31:33;;;;;;;37.90;21.30;;;1.20;99.90;;;;;;5101897;28;20189;-95
2021/12/07 06:34:01;;;;;;;30.53;19.53;;;1.10;99.90;;;;;;5096500;28;20202;-95
2021/12/07 06:36:27;;;;;;;34.57;20.80;;;1.20;99.90;;;;;;5081910;28;20180;-95
2021/12/07 06:38:53;;;;;;;34.37;20.63;;;1.10;99.90;;;;;;5098603;28;20191;-95
2021/12/07 06:41:20;;;;;;;36.13;20.63;;;1.10;99.90;;;;;;5098497;28;20270;-95
2021/12/07 06:43:46;;;;;;;34.53;20.20;;;1.10;99.90;;;;;;5098308;28;20169;-94
2021/12/07 06:46:12;;;;;;;34.20;20.50;;;1.10;99.90;;;;;;5098507;28;20177;-95
2021/12/07 06:48:38;;;;;;;33.87;20.27;;;1.10;99.90;;;;;;5098704;28;20172;-93
2021/12/07 06:51:21;;;;;;;33.00;20.37;;;1.10;99.90;;;;;;5098311;28;20187;-95
2021/12/07 06:53:47;;;;;;;35.03;19.73;;;1.10;99.90;;;;;;5098314;28;20207;-96
2021/12/07 06:56:13;;;;;;;36.17;21.33;;;1.10;99.90;;;;;;5100547;28;20176;-96
2021/12/07 06:58:39;;;;;;;34.73;20.40;;;1.10;99.90;;;;;;5099831;28;20171;-96
2021/12/07 07:01:10;;;;;;;32.03;19.43;;;1.10;99.90;;;;;;5100198;28;20641;-96
2021/12/07 07:03:36;;;;;;;34.27;21.40;;;1.10;99.90;;;;;;5100000;28;20175;-96
2021/12/07 07:06:05;;;;;;;33.57;20.30;;;1.10;99.90;;;;;;5098516;28;20333;-93
2021/12/07 07:08:32;;;;;;;31.37;19.87;;;1.10;99.90;;;;;;5098444;28;20175;-96
2021/12/07 07:11:17;;;;;;;32.23;19.90;;;1.20;99.90;;;;;;5099580;28;20506;-95
2021/12/07 07:13:44;;;;;;;36.00;20.10;;;1.10;99.90;;;;;;5098739;28;20228;-96
2021/12/07 07:16:10;;;;;;;31.13;19.13;;;1.10;99.90;;;;;;5094722;28;20253;-94
2021/12/07 07:18:36;;;;;;;33.33;20.43;;;1.20;99.90;;;;;;5094209;28;20270;-95
2021/12/07 07:21:03;;;;;;;34.43;19.60;;;1.20;99.90;;;;;;5087643;28;20183;-95
2021/12/07 07:23:29;;;;;;;32.37;20.03;;;1.20;99.90;;;;;;5095215;28;20186;-95
2021/12/07 07:25:55;;;;;;;31.10;19.00;;;1.20;99.90;;;;;;5087863;28;20190;-95
2021/12/07 07:28:27;;;;;;;34.07;20.00;;;1.20;99.90;;;;;;5096905;28;20176;-94
2021/12/07 07:30:58;;;;;;;38.87;20.20;;;1.20;99.90;;;;;;5073962;28;20179;-96
2021/12/07 07:33:24;;;;;;;32.80;20.13;;;1.20;99.90;;;;;;5074160;28;20209;-95
2021/12/07 07:35:50;;;;;;;32.53;19.97;;;1.10;99.90;;;;;;5074320;28;20230;-96
2021/12/07 07:38:16;;;;;;;30.03;18.57;;;1.20;99.90;;;;;;5069188;28;20615;-96
2021/12/07 07:40:46;;;;;;;30.40;20.13;;;1.20;99.90;;;;;;5076686;28;20174;-96
2021/12/07 07:43:16;;;;;;;29.60;18.80;;;1.20;99.90;;;;;;5074137;28;20187;-96
2021/12/07 07:45:47;;;;;;;33.07;20.17;;;1.20;99.90;;;;;;5098428;28;20259;-94
2021/12/07 07:48:13;;;;;;;34.37;20.10;;;1.20;99.90;;;;;;5093753;28;20180;-95
2021/12/07 07:50:40;;;;;;;33.37;20.73;;;1.20;99.90;;;;;;5101067;28;20183;-95
2021/12/07 07:53:07;;;;;;;31.60;20.07;;;1.20;99.90;;;;;;5093289;28;20212;-93
2021/12/07 07:55:35;;;;;;;32.73;19.30;;;1.20;99.90;;;;;;5097777;28;20267;-95
2021/12/07 07:58:04;;;;;;;32.97;19.60;;;1.20;99.90;;;;;;5091412;28;20191;-94
2021/12/07 08:00:31;;;;;;;32.70;19.80;;;1.20;99.90;;;;;;5097985;28;20195;-94
2021/12/07 08:02:59;;;;;;;30.70;19.07;;;1.20;99.90;;;;;;5090502;28;20209;-96
2021/12/07 08:05:25;;;;;;;32.17;20.17;;;1.20;99.90;;;;;;5083611;28;20176;-95
2021/12/07 08:07:51;;;;;;;31.27;18.90;;;1.20;99.90;;;;;;5077517;28;20173;-95
2021/12/07 08:10:21;;;;;;;31.77;19.97;;;1.20;99.90;;;;;;5073167;28;20212;-96
2021/12/07 08:12:49;;;;;;;33.57;19.17;;;1.30;99.90;;;;;;5077318;28;20212;-96
2021/12/07 08:15:15;;;;;;;33.37;20.03;;;1.30;99.90;;;;;;5074642;28;20219;-96
2021/12/07 08:17:41;;;;;;;29.67;19.10;;;1.30;99.90;;;;;;5080836;28;20191;-96
2021/12/07 08:20:08;;;;;;;30.93;19.70;;;1.30;99.90;;;;;;5080383;28;20226;-94
2021/12/07 08:22:34;;;;;;;31.70;19.27;;;1.30;99.90;;;;;;5081048;28;20248;-94
2021/12/07 08:24:59;;;;;;;29.00;18.20;;;1.40;99.90;;;;;;5080637;28;20622;-95
2021/12/07 08:27:26;;;;;;;30.67;18.77;;;1.30;99.90;;;;;;5087965;28;20518;-95
2021/12/07 08:29:52;;;;;;;33.33;19.93;;;1.40;99.90;;;;;;5100784;28;20183;-94
2021/12/07 08:32:22;;;;;;;31.37;19.10;;;1.40;99.90;;;;;;5100633;28;20205;-94
2021/12/07 08:34:48;;;;;;;29.87;18.87;;;1.40;99.90;;;;;;5100668;28;20241;-94
2021/12/07 08:37:14;;;;;;;30.37;19.30;;;1.40;99.90;;;;;;5100760;28;20172;-93
2021/12/07 08:39:39;;;;;;;29.53;18.83;;;1.50;99.90;;;;;;5100362;28;20633;-95
2021/12/07 08:42:06;;;;;;;32.80;20.30;;;1.40;99.90;;;;;;5092646;28;20191;-96
2021/12/07 08:44:33;;;;;;;31.93;19.13;;;1.50;99.90;;;;;;5082098;28;20260;-96
2021/12/07 08:47:03;;;;;;;31.30;19.50;;;1.50;99.90;;;;;;5090576;28;20189;-96
2021/12/07 08:49:32;;;;;;;29.57;18.90;;;1.50;99.90;;;;;;5090666;28;20204;-96
2021/12/07 08:52:11;;;;;;;30.93;19.37;;;1.50;99.90;;;;;;5082129;28;20174;-96
2021/12/07 08:59:54;;;;;;;30.13;19.13;;;1.60;99.90;;;;;;5100542;28;20256;-95
2021/12/07 09:02:33;;;;;;;32.07;19.07;;;1.60;99.90;;;;;;5080796;28;20179;-95
2021/12/07 09:05:03;;;;;;;28.97;18.53;;;1.70;99.90;;;;;;5095889;28;20179;-96
2021/12/07 09:07:34;;;;;;;30.03;18.87;;;1.70;99.90;;;;;;5099922;28;20829;-95
2021/12/07 09:10:00;;;;;;;30.03;19.00;;;1.70;99.90;;;;;;5081948;28;20274;-96
2021/12/07 09:12:29;;;;;;;28.47;18.70;;;1.80;99.90;;;;;;5079721;28;20621;-96
2021/12/07 09:14:55;;;;;;;32.27;19.23;;;1.80;99.90;;;;;;5100791;28;20179;-94
2021/12/07 09:17:21;;;;;;;29.07;18.20;;;1.80;99.90;;;;;;5096721;28;20362;-94
2021/12/07 09:19:50;;;;;;;26.93;17.73;;;1.80;99.90;;;;;;5087891;28;20244;-96
2021/12/07 09:22:26;;;;;;;26.83;17.57;;;1.90;99.90;;;;;;5092082;28;20164;-95
2021/12/07 09:24:52;;;;;;;26.80;17.07;;;1.90;99.90;;;;;;5100500;28;20179;-95
2021/12/07 09:27:17;;;;;;;26.27;16.87;;;1.90;99.90;;;;;;5099065;28;20194;-95
2021/12/07 09:29:44;;;;;;;26.63;17.17;;;1.90;99.90;;;;;;5100019;28;20292;-96
2021/12/07 09:32:10;;;;;;;27.07;17.53;;;1.90;99.90;;;;;;5101263;28;20200;-96
2021/12/07 09:34:35;;;;;;;28.17;17.00;;;1.90;99.90;;;;;;5112209;28;20184;-96
2021/12/07 09:37:01;;;;;;;25.40;16.57;;;1.90;99.90;;;;;;5101243;28;20577;-96
2021/12/07 09:39:27;;;;;;;28.00;16.47;;;1.90;99.90;;;;;;5102069;28;20236;-96
2021/12/07 09:41:55;;;;;;;27.57;16.90;;;2.00;99.90;;;;;;5101054;28;20598;-95
2021/12/07 09:44:21;;;;;;;24.97;17.13;;;2.00;99.90;;;;;;5099653;28;20176;-95
2021/12/07 09:46:47;;;;;;;27.40;16.03;;;2.00;99.90;;;;;;5100386;28;20594;-93
2021/12/07 09:49:16;;;;;;;25.17;17.30;;;2.00;99.90;;;;;;5104548;28;20221;-96
2021/12/07 09:51:45;;;;;;;27.07;17.00;;;2.00;99.90;;;;;;5092563;28;20173;-96
2021/12/07 09:54:14;;;;;;;25.70;16.27;;;2.00;99.90;;;;;;5070670;28;20228;-96
2021/12/07 09:56:44;;;;;;;26.83;16.70;;;2.00;99.90;;;;;;5102661;28;20267;-96
2021/12/07 09:59:23;;;;;;;28.47;17.60;;;2.10;99.90;;;;;;5086268;28;20200;-96
2021/12/07 10:01:52;;;;;;;25.50;16.20;;;2.10;99.90;;;;;;5121182;28;20581;-96
2021/12/07 10:04:19;;;;;;;24.03;15.70;;;2.10;99.90;;;;;;5087951;28;20188;-95
2021/12/07 10:06:48;;;;;;;25.83;16.87;;;2.10;99.90;;;;;;5094904;28;20181;-96
2021/12/07 10:09:15;;;;;;;28.53;17.23;;;2.10;99.90;;;;;;5105673;28;20188;-95
2021/12/07 10:11:43;;;;;;;24.50;15.87;;;2.10;99.90;;;;;;5092243;23;20603;-96
2021/12/07 10:14:12;;;;;;;25.60;17.03;;;2.10;99.90;;;;;;5043697;28;20202;-96
2021/12/07 10:16:45;;;;;;;28.03;17.17;;;2.10;99.90;;;;;;5044989;28;20213;-96
2021/12/07 10:19:14;;;;;;;25.53;16.43;;;2.20;99.90;;;;;;5107601;28;20178;-96
2021/12/07 10:21:44;;;;;;;25.00;16.30;;;2.20;99.90;;;;;;5108216;28;20175;-96
2021/12/07 10:24:21;;;;;;;25.20;15.53;;;2.30;99.90;;;;;;5110851;28;20356;-96
2021/12/07 10:26:48;;;;;;;24.00;15.67;;;2.30;99.90;;;;;;5102426;28;20214;-96
2021/12/07 10:29:20;;;;;;;24.57;15.53;;;2.30;99.90;;;;;;5102381;28;20183;-96
2021/12/07 10:31:52;;;;;;;25.03;16.40;;;2.30;99.90;;;;;;5094317;28;20526;-96
2021/12/07 10:34:24;;;;;;;23.70;15.83;;;2.40;99.90;;;;;;5084042;28;20243;-96
2021/12/07 10:37:03;;;;;;;24.30;16.43;;;2.40;99.90;;;;;;5095209;28;20238;-96
2021/12/07 10:39:39;;;;;;;25.00;16.00;;;2.40;99.90;;;;;;5104174;28;20186;-96
2021/12/07 10:42:11;;;;;;;30.53;15.87;;;2.40;99.90;;;;;;5106572;28;20178;-96
2021/12/07 10:44:49;;;;;;;23.47;15.63;;;2.50;99.90;;;;;;5107309;28;20170;-96
2021/12/07 10:47:17;;;;;;;23.77;15.53;;;2.50;99.90;;;;;;5110993;28;20167;-94
2021/12/07 10:49:49;;;;;;;22.67;15.03;;;2.50;99.90;;;;;;5101559;28;20205;-95
2021/12/07 10:52:26;;;;;;;22.83;15.17;;;2.50;99.90;;;;;;5102034;28;20228;-96
2021/12/07 10:55:27;;;;;;;23.07;15.20;;;2.50;99.90;;;;;;5101800;28;20201;-95
2021/12/07 10:58:07;;;;;;;25.57;16.10;;;2.50;99.90;;;;;;5101211;28;20190;-96
2021/12/07 11:00:45;;;;;;;24.20;15.90;;;2.50;99.90;;;;;;5098189;28;20193;-96
2021/12/07 11:03:14;;;;;;;22.57;14.50;;;2.60;99.90;;;;;;5090743;28;20190;-96
2021/12/07 11:05:46;;;;;;;22.33;14.73;;;2.60;99.90;;;;;;5070641;28;20187;-96
2021/12/07 11:08:16;;;;;;;22.17;14.77;;;2.60;99.90;;;;;;5087105;28;20178;-96
2021/12/07 11:10:47;;;;;;;22.40;15.03;;;2.60;99.90;;;;;;5089501;28;20180;-96
2021/12/07 11:13:19;;;;;;;19.23;14.40;;;2.60;99.90;;;;;;5073373;28;20231;-96
2021/12/07 11:15:54;;;;;;;24.17;15.07;;;2.70;99.90;;;;;;5087633;28;20183;-96
2021/12/07 11:18:22;;;;;;;24.53;15.90;;;2.70;99.90;;;;;;5080516;28;20196;-95
2021/12/07 11:20:49;;;;;;;21.87;15.00;;;2.70;99.90;;;;;;5080918;28;20207;-96
2021/12/07 11:23:27;;;;;;;24.20;15.63;;;2.70;99.90;;;;;;5081705;28;20179;-96
2021/12/07 11:31:27;;;;;;;24.30;15.03;;;2.80;99.90;;;;;;5012618;28;20170;-96
2021/12/07 11:34:06;;;;;;;22.97;15.30;;;2.90;99.90;;;;;;5082582;28;20214;-96
2021/12/07 11:36:38;;;;;;;23.63;15.93;;;3.00;99.90;;;;;;5080717;28;20494;-96
2021/12/07 11:39:23;;;;;;;21.63;13.73;;;3.00;99.90;;;;;;5080698;28;20179;-96
2021/12/07 11:41:53;;;;;;;23.00;14.63;;;3.10;99.90;;;;;;5080714;28;20270;-96
2021/12/07 11:44:22;;;;;;;26.03;15.03;;;3.20;99.90;;;;;;5082175;28;20677;-96
2021/12/07 11:46:49;;;;;;;21.57;14.57;;;3.20;99.90;;;;;;5083242;28;20171;-96
2021/12/07 11:49:23;;;;;;;24.20;14.83;;;3.30;99.90;;;;;;5083873;28;20175;-96
2021/12/07 11:51:53;;;;;;;22.97;15.00;;;3.30;99.90;;;;;;5083534;28;20184;-96
2021/12/07 11:54:23;;;;;;;23.00;14.53;;;3.40;99.90;;;;;;5084479;28;20197;-96
2021/12/07 11:56:49;;;;;;;24.80;15.37;;;3.40;99.90;;;;;;5083514;28;20198;-96
2021/12/07 11:59:16;;;;;;;20.73;14.27;;;3.40;99.90;;;;;;5093697;28;20182;-96
2021/12/07 12:01:44;;;;;;;21.60;13.53;;;3.40;99.90;;;;;;5083165;28;20186;-96
2021/12/07 12:04:14;;;;;;;22.17;13.97;;;3.40;99.90;;;;;;5083472;28;20187;-96
2021/12/07 12:06:42;;;;;;;20.67;13.17;;;3.40;99.90;;;;;;5083770;28;20176;-96
2021/12/07 12:09:09;;;;;;;20.00;13.33;;;3.50;99.90;;;;;;5096700;28;20200;-96
2021/12/07 12:11:56;;;;;;;20.13;13.43;;;3.50;99.90;;;;;;5102899;28;20233;-96
2021/12/07 12:14:46;;;;;;;20.00;12.97;;;3.70;99.90;;;;;;5100596;28;20634;-96
2021/12/07 12:17:31;;;;;;;18.03;12.43;;;3.80;99.90;;;;;;5101574;28;20218;-96
2021/12/07 12:20:26;;;;;;;19.80;12.93;;;4.00;99.90;;;;;;5101793;28;20299;-96
2021/12/07 12:23:08;;;;;;;18.57;12.33;;;4.10;99.90;;;;;;5100545;28;20198;-96
2021/12/07 12:25:37;;;;;;;20.47;12.97;;;4.00;99.90;;;;;;5100740;28;20177;-96
2021/12/07 12:28:03;;;;;;;17.83;12.37;;;4.00;99.90;;;;;;5101139;28;20579;-96
2021/12/07 12:30:37;;;;;;;17.73;11.87;;;4.00;99.90;;;;;;5105916;28;20175;-96
2021/12/07 12:33:09;;;;;;;19.60;11.80;;;4.00;99.90;;;;;;5106377;28;20208;-96
2021/12/07 12:35:42;;;;;;;16.27;11.27;;;4.00;99.90;;;;;;5108031;28;20183;-96
2021/12/07 12:38:24;;;;;;;15.83;11.33;;;4.00;99.90;;;;;;5103327;28;20352;-96
2021/12/07 12:41:09;;;;;;;18.00;11.10;;;4.00;99.90;;;;;;5084745;28;20176;-96
2021/12/07 12:43:50;;;;;;;13.33;10.17;;;4.00;99.90;;;;;;5104303;28;20251;-96
2021/12/07 12:46:28;;;;;;;14.43;9.63;;;4.00;99.90;;;;;;5105217;28;20167;-96
2021/12/07 12:48:58;;;;;;;13.53;9.33;;;4.00;99.90;;;;;;5106880;28;20257;-96
2021/12/07 12:51:28;;;;;;;11.93;8.67;;;4.00;99.90;;;;;;5106077;28;20261;-96
2021/12/07 12:53:55;;;;;;;13.50;8.13;;;4.00;99.90;;;;;;5110231;28;20263;-96
2021/12/07 12:56:27;;;;;;;11.83;8.37;;;4.00;99.90;;;;;;5097187;28;20203;-95
2021/12/07 12:58:57;;;;;;;13.40;9.13;;;4.00;99.90;;;;;;5085418;28;20175;-96
2021/12/07 13:01:27;;;;;;;13.17;9.40;;;4.10;99.90;;;;;;5105911;28;20175;-95
2021/12/07 13:04:07;;;;;;;14.67;10.60;;;4.10;99.90;;;;;;5106011;28;20209;-96
2021/12/07 13:06:33;;;;;;;11.50;8.87;;;4.20;99.90;;;;;;5108282;28;20291;-96
2021/12/07 13:09:05;;;;;;;13.70;9.43;;;4.20;99.90;;;;;;5106010;28;20568;-96
2021/12/07 13:11:45;;;;;;;14.00;9.60;;;4.30;99.90;;;;;;5108985;28;20234;-96
2021/12/07 13:14:37;;;;;;;12.93;9.77;;;4.40;99.90;;;;;;5107570;28;20227;-96
2021/12/07 13:17:26;;;;;;;12.90;9.37;;;4.40;99.90;;;;;;5099456;28;20545;-96
2021/12/07 13:20:18;;;;;;;12.87;9.67;;;4.50;99.90;;;;;;5087038;28;20175;-96
2021/12/07 13:23:02;;;;;;;14.33;10.23;;;4.40;99.90;;;;;;5086238;28;20191;-96
2021/12/07 13:25:48;;;;;;;14.80;10.27;;;4.30;99.90;;;;;;5021082;28;20183;-96
2021/12/07 13:28:22;;;;;;;15.03;10.30;;;4.10;99.90;;;;;;5103165;28;20193;-96
2021/12/07 13:31:04;;;;;;;13.57;9.83;;;4.00;99.90;;;;;;5109591;28;20210;-96
2021/12/07 13:33:34;;;;;;;14.40;10.10;;;3.90;99.90;;;;;;5106715;28;20199;-96
2021/12/07 13:36:33;;;;;;;15.10;11.03;;;3.80;99.90;;;;;;5104792;28;20265;-96
2021/12/07 13:39:16;;;;;;;13.80;10.13;;;3.80;99.90;;;;;;5105822;28;20167;-96
2021/12/07 13:42:00;;;;;;;16.17;10.33;;;3.70;99.90;;;;;;5114098;28;20175;-96
2021/12/07 13:44:31;;;;;;;14.57;9.60;;;3.70;99.90;;;;;;5108686;28;20179;-96
2021/12/07 13:47:49;;;;;;;13.93;10.33;;;3.70;99.90;;;;;;5044214;28;20200;-96
2021/12/07 13:50:30;;;;;;;13.67;10.20;;;3.70;99.90;;;;;;5046300;28;20563;-96
2021/12/07 13:52:57;;;;;;;12.57;9.47;;;3.70;99.90;;;;;;5087340;28;20610;-96
2021/12/07 13:55:28;;;;;;;12.97;9.63;;;3.70;99.90;;;;;;5106335;28;20183;-96
2021/12/07 13:58:00;;;;;;;15.43;9.90;;;3.70;99.90;;;;;;5093558;28;20187;-96
2021/12/07 14:00:29;;;;;;;13.27;9.53;;;3.70;99.90;;;;;;5106913;28;20190;-96
2021/12/07 14:03:02;;;;;;;13.93;9.30;;;3.70;99.90;;;;;;5108369;28;20292;-96
2021/12/07 14:05:33;;;;;;;13.33;8.97;;;3.60;99.90;;;;;;5107009;28;20605;-96
2021/12/07 14:08:08;;;;;;;15.27;10.33;;;3.60;99.90;;;;;;5043624;28;20208;-96
2021/12/07 14:10:43;;;;;;;14.27;9.87;;;3.60;99.90;;;;;;5113943;28;20256;-96
2021/12/07 14:13:23;;;;;;;14.63;10.37;;;3.60;99.90;;;;;;5116171;28;20283;-96
2021/12/07 14:16:01;;;;;;;13.23;9.80;;;3.50;99.90;;;;;;5118016;28;20203;-96
2021/12/07 14:18:35;;;;;;;14.20;9.77;;;3.60;99.90;;;;;;5000117;28;20199;-96
2021/12/07 14:21:02;;;;;;;15.97;10.20;;;3.50;99.90;;;;;;5105887;28;20196;-96
2021/12/07 14:23:34;;;;;;;13.77;10.17;;;3.50;99.90;;;;;;5102355;28;20284;-96
2021/12/07 14:26:22;;;;;;;14.60;10.13;;;3.50;99.90;;;;;;5102616;28;20222;-94
2021/12/07 14:28:56;;;;;;;13.37;9.93;;;3.50;99.90;;;;;;5081841;28;20198;-96
2021/12/07 14:31:33;;;;;;;15.67;11.03;;;3.50;99.90;;;;;;5082279;28;20615;-96
2021/12/07 14:34:12;;;;;;;14.57;10.33;;;3.50;99.90;;;;;;5082007;28;20215;-96
2021/12/07 14:36:44;;;;;;;14.17;10.20;;;3.50;99.90;;;;;;5098712;28;20171;-96
2021/12/07 14:39:21;;;;;;;12.53;9.27;;;3.50;99.90;;;;;;5102170;28;20178;-96
2021/12/07 14:41:53;;;;;;;13.90;10.37;;;3.40;99.90;;;;;;5102605;28;20600;-96